Time;durP1;ratioP1;P1;durP2;ratioP2;P2;SDS_P1;SDS_P2;PMS_P1;PMS_P2;Temp;Humidity;BMP_temperature;BMP_pressure;BME280_temperature;BME280_humidity;BME280_pressure;Samples;Min_cycle;Max_cycle;Signal;HPM_P1;HPM_P2
2022/09/30 00:01:50;;;;;;;;;;;;;;;10.98;58.89;99747.16;4934223;28;6820;-79
2022/09/30 00:04:23;;;;;;;;;;;;;;;11.00;59.71;99748.09;4917336;28;8643;-77
2022/09/30 00:06:50;;;;;;;;;;;;;;;11.04;59.47;99746.50;4918658;28;6820;-76
2022/09/30 00:09:16;;;;;;;;;;;;;;;11.07;59.81;99749.16;4916665;28;7032;-77
2022/09/30 00:11:42;;;;;;;;;;;;;;;11.10;59.38;99754.41;4931722;28;6804;-78
2022/09/30 00:14:16;;;;;;;;;;;;;;;11.11;59.46;99758.72;4938419;28;6808;-76
2022/09/30 00:16:42;;;;;;;;;;;;;;;11.11;59.14;99756.16;4915331;28;8508;-77
2022/09/30 00:19:08;;;;;;;;;;;;;;;11.11;58.56;99759.59;4930551;28;7505;-75
2022/09/30 00:21:34;;;;;;;;;;;;;;;11.07;58.29;99762.00;4937399;28;8500;-76
2022/09/30 00:24:01;;;;;;;;;;;;;;;11.02;58.46;99764.38;4925167;28;8683;-77
2022/09/30 00:26:27;;;;;;;;;;;;;;;10.97;57.96;99771.91;4937640;28;8822;-77
2022/09/30 00:28:57;;;;;;;;;;;;;;;10.90;57.96;99761.38;4936271;28;6772;-76
2022/09/30 00:31:28;;;;;;;;;;;;;;;10.85;58.05;99761.22;4932291;28;8493;-78
2022/09/30 00:34:06;;;;;;;;;;;;;;;10.83;58.51;99773.13;4931438;28;7268;-77
2022/09/30 00:36:44;;;;;;;;;;;;;;;10.80;58.92;99762.72;4929824;28;7256;-77
2022/09/30 00:39:20;;;;;;;;;;;;;;;10.80;59.36;99763.63;4934619;28;8431;-78
2022/09/30 00:41:50;;;;;;;;;;;;;;;10.82;59.23;99763.69;4915840;28;7150;-77
2022/09/30 00:44:42;;;;;;;;;;;;;;;10.83;59.58;99760.31;4931416;28;6800;-78
2022/09/30 00:47:38;;;;;;;;;;;;;;;10.84;59.42;99769.75;4933825;28;7250;-76
2022/09/30 00:50:46;;;;;;;;;;;;;;;10.87;59.71;99772.41;4904623;28;8854;-77
2022/09/30 00:53:30;;;;;;;;;;;;;;;10.91;59.47;99773.38;4924704;28;7224;-77
2022/09/30 00:56:12;;;;;;;;;;;;;;;10.92;59.38;99777.69;4934854;28;8747;-76
2022/09/30 00:58:52;;;;;;;;;;;;;;;10.94;59.36;99781.19;4920494;29;8764;-76
2022/09/30 01:01:19;;;;;;;;;;;;;;;10.93;59.31;99795.72;4926560;28;7158;-76
2022/09/30 01:04:02;;;;;;;;;;;;;;;10.92;59.13;99793.97;4934283;28;7021;-76
2022/09/30 01:06:28;;;;;;;;;;;;;;;10.90;58.98;99784.47;4930759;28;6996;-77
2022/09/30 01:08:57;;;;;;;;;;;;;;;10.88;58.43;99781.84;4934068;28;6860;-76
2022/09/30 01:11:25;;;;;;;;;;;;;;;10.86;59.18;99778.34;4937288;28;7020;-77
2022/09/30 01:13:57;;;;;;;;;;;;;;;10.84;59.03;99780.00;4923511;28;6815;-79
2022/09/30 01:17:00;;;;;;;;;;;;;;;10.83;59.32;99778.25;4927459;28;8390;-77
2022/09/30 01:19:40;;;;;;;;;;;;;;;10.79;59.36;99782.38;4937092;28;7211;-77
2022/09/30 01:22:42;;;;;;;;;;;;;;;10.78;59.23;99782.31;4928873;28;7206;-76
2022/09/30 01:25:30;;;;;;;;;;;;;;;10.75;59.62;99784.78;4936855;28;7261;-77
2022/09/30 01:28:36;;;;;;;;;;;;;;;10.76;58.96;99783.94;4933239;28;8971;-79
2022/09/30 01:31:29;;;;;;;;;;;;;;;10.74;59.78;99789.00;4933235;28;7373;-77
2022/09/30 01:34:25;;;;;;;;;;;;;;;10.75;59.69;99789.91;4914674;28;7162;-77
2022/09/30 01:36:58;;;;;;;;;;;;;;;10.76;59.77;99784.81;4908595;28;7529;-79
2022/09/30 01:39:49;;;;;;;;;;;;;;;10.77;59.92;99783.13;4936083;28;6812;-76
2022/09/30 01:42:26;;;;;;;;;;;;;;;10.78;59.50;99784.88;4919992;28;7191;-77
2022/09/30 01:45:02;;;;;;;;;;;;;;;10.78;59.70;99785.75;4937287;28;6812;-77
2022/09/30 01:48:10;;;;;;;;;;;;;;;10.77;59.99;99785.69;4940565;28;6874;-76
2022/09/30 01:51:14;;;;;;;;;;;;;;;10.76;59.34;99781.38;4931407;28;7232;-77
2022/09/30 01:53:56;;;;;;;;;;;;;;;10.75;59.65;99779.66;4933898;28;7335;-76
2022/09/30 01:56:31;;;;;;;;;;;;;;;10.73;59.40;99777.00;4934704;28;7266;-76
2022/09/30 01:59:10;;;;;;;;;;;;;;;10.73;59.63;99776.16;4939087;28;6995;-78
2022/09/30 02:01:52;;;;;;;;;;;;;;;10.72;59.64;99779.50;4934371;28;8692;-77
2022/09/30 02:04:36;;;;;;;;;;;;;;;10.71;59.07;99786.34;4935308;28;7383;-79
2022/09/30 02:07:11;;;;;;;;;;;;;;;10.65;59.40;99794.69;4919399;28;7080;-79
2022/09/30 02:09:57;;;;;;;;;;;;;;;10.62;59.02;99791.13;4938997;28;8418;-76
2022/09/30 02:12:33;;;;;;;;;;;;;;;10.60;59.02;99796.19;4939185;28;6969;-81
2022/09/30 02:15:11;;;;;;;;;;;;;;;10.58;59.16;99790.13;4940398;28;7308;-81
2022/09/30 02:17:55;;;;;;;;;;;;;;;10.56;59.19;99784.06;4928741;28;7044;-80
2022/09/30 02:20:30;;;;;;;;;;;;;;;10.54;59.13;99785.72;4927335;28;6995;-80
2022/09/30 02:23:25;;;;;;;;;;;;;;;10.51;59.51;99781.34;4939720;28;7138;-80
2022/09/30 02:25:59;;;;;;;;;;;;;;;10.48;59.68;99785.47;4937666;28;7007;-80
2022/09/30 02:28:29;;;;;;;;;;;;;;;10.45;59.61;99777.69;4927782;28;7134;-80
2022/09/30 02:31:00;;;;;;;;;;;;;;;10.42;59.08;99786.97;4937924;28;7099;-81
2022/09/30 02:33:45;;;;;;;;;;;;;;;10.41;59.01;99787.78;4939695;28;7198;-80
2022/09/30 02:36:32;;;;;;;;;;;;;;;10.38;59.06;99792.75;4936431;28;7054;-81
2022/09/30 02:39:21;;;;;;;;;;;;;;;10.37;59.57;99782.44;4936903;28;7008;-80
2022/09/30 02:41:54;;;;;;;;;;;;;;;10.35;59.04;99779.84;4937622;28;8525;-82
2022/09/30 02:44:21;;;;;;;;;;;;;;;10.34;59.10;99783.22;4933790;28;7044;-82
2022/09/30 02:47:28;;;;;;;;;;;;;;;10.35;59.50;99784.97;4934376;28;7231;-82
2022/09/30 02:50:14;;;;;;;;;;;;;;;10.33;59.68;99793.41;4929529;28;7274;-79
2022/09/30 02:53:05;;;;;;;;;;;;;;;10.34;59.52;99792.59;4932110;28;6995;-81
2022/09/30 02:55:35;;;;;;;;;;;;;;;10.31;58.71;99785.66;4928355;28;7278;-82
2022/09/30 02:58:18;;;;;;;;;;;;;;;10.32;59.69;99786.53;4928488;28;7068;-82
2022/09/30 03:00:44;;;;;;;;;;;;;;;10.31;59.58;99793.31;4934617;28;7009;-81
2022/09/30 03:03:34;;;;;;;;;;;;;;;10.31;59.25;99789.91;4937155;28;7180;-81
2022/09/30 03:06:00;;;;;;;;;;;;;;;10.32;59.20;99796.78;4938125;28;7240;-79
2022/09/30 03:08:26;;;;;;;;;;;;;;;10.31;59.43;99785.66;4932282;28;8522;-81
2022/09/30 03:10:51;;;;;;;;;;;;;;;10.32;59.72;99795.06;4920310;28;6895;-80
2022/09/30 03:14:01;;;;;;;;;;;;;;;10.33;59.89;99803.66;4935422;28;6780;-82
2022/09/30 03:17:02;;;;;;;;;;;;;;;10.31;60.24;99810.41;4933054;28;7270;-80
2022/09/30 03:20:01;;;;;;;;;;;;;;;10.29;59.34;99815.44;4927945;28;7062;-82
2022/09/30 03:23:05;;;;;;;;;;;;;;;10.27;60.16;99812.81;4935337;28;7285;-82
2022/09/30 03:25:59;;;;;;;;;;;;;;;10.27;59.30;99809.41;4931946;28;6986;-81
2022/09/30 03:28:40;;;;;;;;;;;;;;;10.28;59.62;99813.72;4913813;28;8808;-81
2022/09/30 03:31:17;;;;;;;;;;;;;;;10.27;59.64;99811.97;4932051;28;8245;-82
2022/09/30 03:34:14;;;;;;;;;;;;;;;10.27;59.69;99809.41;4935955;28;6870;-79
2022/09/30 03:37:16;;;;;;;;;;;;;;;10.25;59.68;99809.34;4928658;28;7258;-80
2022/09/30 03:39:58;;;;;;;;;;;;;;;10.27;59.65;99806.84;4932721;28;8473;-81
2022/09/30 03:42:39;;;;;;;;;;;;;;;10.26;60.41;99815.34;4921143;28;7176;-79
2022/09/30 03:45:31;;;;;;;;;;;;;;;10.25;59.84;99817.00;4931674;28;8174;-78
2022/09/30 03:48:05;;;;;;;;;;;;;;;10.25;60.43;99824.69;4931457;28;7290;-78
2022/09/30 03:50:35;;;;;;;;;;;;;;;10.27;59.74;99823.06;4935194;28;6832;-81
2022/09/30 03:53:03;;;;;;;;;;;;;;;10.28;59.64;99823.97;4933008;28;6820;-78
2022/09/30 03:55:32;;;;;;;;;;;;;;;10.30;59.44;99826.59;4929207;28;6975;-81
2022/09/30 03:57:57;;;;;;;;;;;;;;;10.31;59.35;99833.47;4933295;28;8574;-81
2022/09/30 04:00:23;;;;;;;;;;;;;;;10.31;59.91;99818.94;4911003;28;7402;-82
2022/09/30 04:02:49;;;;;;;;;;;;;;;10.32;60.08;99820.69;4930925;28;6764;-81
2022/09/30 04:05:14;;;;;;;;;;;;;;;10.32;59.99;99830.06;4926220;28;7215;-81
2022/09/30 04:07:40;;;;;;;;;;;;;;;10.31;59.81;99833.47;4922181;28;8501;-80
2022/09/30 04:10:06;;;;;;;;;;;;;;;10.30;59.29;99836.84;4928771;28;6780;-80
2022/09/30 04:12:32;;;;;;;;;;;;;;;10.26;59.42;99839.25;4934822;28;6968;-79
2022/09/30 04:14:57;;;;;;;;;;;;;;;10.24;58.70;99848.56;4937695;28;6963;-79
2022/09/30 04:17:23;;;;;;;;;;;;;;;10.20;58.38;99856.94;4918287;28;8123;-79
2022/09/30 04:19:49;;;;;;;;;;;;;;;10.16;58.61;99854.19;4931945;28;6928;-80
2022/09/30 04:22:14;;;;;;;;;;;;;;;10.14;58.66;99866.94;4934959;28;7013;-82
2022/09/30 04:24:40;;;;;;;;;;;;;;;10.11;59.38;99860.00;4930314;28;8484;-82
2022/09/30 04:27:06;;;;;;;;;;;;;;;10.09;59.29;99859.06;4936360;28;6947;-80
2022/09/30 04:29:31;;;;;;;;;;;;;;;10.09;58.93;99859.06;4930980;28;6768;-80
2022/09/30 04:31:58;;;;;;;;;;;;;;;10.10;59.66;99862.50;4934364;28;7192;-81
2022/09/30 04:34:23;;;;;;;;;;;;;;;10.07;58.99;99863.25;4936272;28;6983;-78
2022/09/30 04:36:49;;;;;;;;;;;;;;;10.07;58.96;99862.38;4935567;28;7098;-80
2022/09/30 04:39:15;;;;;;;;;;;;;;;10.04;59.76;99860.53;4918755;28;7183;-81
2022/09/30 04:41:40;;;;;;;;;;;;;;;10.04;59.30;99857.97;4934240;28;7195;-78
2022/09/30 04:44:06;;;;;;;;;;;;;;;10.01;59.49;99860.44;4935014;28;6964;-81
2022/09/30 04:46:35;;;;;;;;;;;;;;;10.01;59.45;99860.44;4919503;28;8392;-78
2022/09/30 04:49:05;;;;;;;;;;;;;;;9.99;59.82;99862.06;4931901;28;7153;-82
2022/09/30 04:51:31;;;;;;;;;;;;;;;9.97;59.90;99856.84;4934442;28;6792;-81
2022/09/30 04:53:57;;;;;;;;;;;;;;;9.98;60.28;99860.31;4920082;28;7165;-81
2022/09/30 04:56:25;;;;;;;;;;;;;;;9.99;59.72;99873.19;4933538;28;7386;-81
2022/09/30 04:58:51;;;;;;;;;;;;;;;10.03;60.33;99865.63;4933954;28;6857;-81
2022/09/30 05:01:18;;;;;;;;;;;;;;;10.07;60.48;99875.16;4920536;28;7029;-82
2022/09/30 05:03:46;;;;;;;;;;;;;;;10.11;60.11;99879.63;4933384;28;6971;-81
2022/09/30 05:06:13;;;;;;;;;;;;;;;10.14;60.35;99882.28;4930902;28;8796;-79
2022/09/30 05:08:42;;;;;;;;;;;;;;;10.16;60.32;99885.78;4933147;28;7238;-81
2022/09/30 05:11:16;;;;;;;;;;;;;;;10.17;60.04;99892.66;4935764;28;7165;-81
2022/09/30 05:13:42;;;;;;;;;;;;;;;10.19;60.13;99903.88;4921037;28;10006;-81
2022/09/30 05:16:10;;;;;;;;;;;;;;;10.20;60.30;99902.16;4934231;28;6788;-82
2022/09/30 05:18:36;;;;;;;;;;;;;;;10.19;60.37;99908.09;4933437;28;6852;-81
2022/09/30 05:21:03;;;;;;;;;;;;;;;10.20;60.24;99910.72;4931792;28;6959;-80
2022/09/30 05:23:31;;;;;;;;;;;;;;;10.19;59.50;99921.78;4924618;29;6860;-79
2022/09/30 05:25:59;;;;;;;;;;;;;;;10.20;59.75;99922.66;4934699;28;6991;-82
2022/09/30 05:28:25;;;;;;;;;;;;;;;10.20;59.66;99932.91;4933304;28;9584;-79
2022/09/30 05:30:58;;;;;;;;;;;;;;;10.17;59.59;99925.94;4932752;28;6974;-79
2022/09/30 05:33:26;;;;;;;;;;;;;;;10.18;59.71;99921.72;4934846;28;6812;-82
2022/09/30 05:35:51;;;;;;;;;;;;;;;10.17;59.50;99917.41;4916766;29;8550;-79
2022/09/30 05:38:17;;;;;;;;;;;;;;;10.16;59.34;99924.19;4937751;28;7198;-81
2022/09/30 05:40:43;;;;;;;;;;;;;;;10.16;59.85;99934.44;4929943;29;7229;-79
2022/09/30 05:43:08;;;;;;;;;;;;;;;10.16;59.21;99937.00;4934134;28;6852;-81
2022/09/30 05:45:34;;;;;;;;;;;;;;;10.12;59.27;99933.44;4936866;28;6780;-81
2022/09/30 05:48:00;;;;;;;;;;;;;;;10.14;59.95;99943.75;4932818;28;7196;-81
2022/09/30 05:50:27;;;;;;;;;;;;;;;10.17;60.41;99943.03;4930140;28;6824;-79
2022/09/30 05:52:52;;;;;;;;;;;;;;;10.20;59.94;99950.81;4929202;28;7273;-79
2022/09/30 05:55:21;;;;;;;;;;;;;;;10.22;60.19;99951.75;4935658;28;6793;-80
2022/09/30 05:57:49;;;;;;;;;;;;;;;10.24;60.24;99953.56;4936098;28;7343;-79
2022/09/30 06:00:15;;;;;;;;;;;;;;;10.26;60.58;99951.09;4907908;28;7286;-81
2022/09/30 06:02:41;;;;;;;;;;;;;;;10.30;59.78;99963.19;4927223;28;9992;-82
2022/09/30 06:05:09;;;;;;;;;;;;;;;10.33;60.61;99958.19;4932364;28;6772;-78
2022/09/30 06:07:36;;;;;;;;;;;;;;;10.34;60.21;99954.84;4931012;28;7337;-80
2022/09/30 06:10:06;;;;;;;;;;;;;;;10.38;60.37;99963.50;4919090;28;7030;-80
2022/09/30 06:12:35;;;;;;;;;;;;;;;10.41;60.30;99964.56;4933058;28;7285;-81
2022/09/30 06:15:01;;;;;;;;;;;;;;;10.46;60.56;99963.88;4942402;28;7537;-82
2022/09/30 06:17:27;;;;;;;;;;;;;;;10.49;60.43;99964.91;4931754;28;8458;-82
2022/09/30 06:19:52;;;;;;;;;;;;;;;10.52;59.70;99962.44;4931862;28;7007;-80
2022/09/30 06:22:18;;;;;;;;;;;;;;;10.58;60.34;99969.50;4930695;28;7147;-81
2022/09/30 06:24:45;;;;;;;;;;;;;;;10.63;60.94;99979.94;4934399;28;8245;-81
2022/09/30 06:27:11;;;;;;;;;;;;;;;10.67;60.81;99982.69;4933890;28;10045;-78
2022/09/30 06:29:37;;;;;;;;;;;;;;;10.71;60.53;99978.56;4920941;28;6969;-77
2022/09/30 06:32:03;;;;;;;;;;;;;;;10.79;60.60;99986.56;4919441;28;8472;-81
2022/09/30 06:34:29;;;;;;;;;;;;;;;10.85;60.96;99986.81;4933898;28;6893;-80
2022/09/30 06:36:55;;;;;;;;;;;;;;;10.93;60.74;99995.72;4931830;28;7200;-81
2022/09/30 06:39:20;;;;;;;;;;;;;;;11.01;60.93;100000.25;4937138;28;7888;-80
2022/09/30 06:41:46;;;;;;;;;;;;;;;11.07;61.13;99995.38;4936629;28;6856;-82
2022/09/30 06:44:12;;;;;;;;;;;;;;;11.16;60.99;100000.84;4934220;28;7232;-81
2022/09/30 06:46:38;;;;;;;;;;;;;;;11.25;61.27;99996.09;4931452;28;7014;-79
2022/09/30 06:49:05;;;;;;;;;;;;;;;11.35;61.35;99989.63;4927655;28;7237;-80
2022/09/30 06:51:32;;;;;;;;;;;;;;;11.45;61.30;99992.56;4926024;28;6800;-79
2022/09/30 06:53:59;;;;;;;;;;;;;;;11.53;61.28;99994.56;4933603;28;6785;-78
2022/09/30 06:56:25;;;;;;;;;;;;;;;11.64;61.07;99997.56;4919698;28;7065;-80
2022/09/30 06:58:52;;;;;;;;;;;;;;;11.76;61.40;99996.25;4935005;28;6804;-82
2022/09/30 07:01:19;;;;;;;;;;;;;;;11.85;60.99;100004.28;4918822;28;6966;-79
2022/09/30 07:03:46;;;;;;;;;;;;;;;11.96;61.66;100004.66;4923653;28;7349;-81
2022/09/30 07:06:14;;;;;;;;;;;;;;;12.06;61.33;100011.91;4931185;28;6968;-80
2022/09/30 07:08:40;;;;;;;;;;;;;;;12.15;61.28;100015.63;4935860;28;7416;-81
2022/09/30 07:11:13;;;;;;;;;;;;;;;12.26;61.27;100022.00;4933200;28;7434;-79
2022/09/30 07:13:48;;;;;;;;;;;;;;;12.36;60.86;100020.66;4917917;28;6812;-80
2022/09/30 07:16:17;;;;;;;;;;;;;;;12.46;60.68;100027.00;4937013;28;7473;-81
2022/09/30 07:18:44;;;;;;;;;;;;;;;12.54;60.98;100028.09;4921463;28;7151;-82
2022/09/30 07:21:14;;;;;;;;;;;;;;;12.63;61.04;100025.00;4937464;28;7437;-80
2022/09/30 07:23:46;;;;;;;;;;;;;;;12.72;60.99;100024.41;4934556;28;6900;-80
2022/09/30 07:26:19;;;;;;;;;;;;;;;12.78;60.72;100024.63;4932276;28;7666;-79
2022/09/30 07:28:46;;;;;;;;;;;;;;;12.89;60.62;100027.53;4935992;28;7716;-80
2022/09/30 07:31:17;;;;;;;;;;;;;;;12.96;59.99;100023.47;4930628;28;6969;-81
2022/09/30 07:33:44;;;;;;;;;;;;;;;13.03;60.56;100026.28;4936208;28;7205;-81
2022/09/30 07:36:12;;;;;;;;;;;;;;;13.12;60.72;100024.84;4933334;28;6940;-79
2022/09/30 07:38:41;;;;;;;;;;;;;;;13.20;60.68;100029.38;4934817;28;7094;-81
2022/09/30 07:41:14;;;;;;;;;;;;;;;13.30;59.75;100027.09;4931213;28;10610;-81
2022/09/30 07:43:44;;;;;;;;;;;;;;;13.39;60.60;100026.53;4935544;28;7293;-81
2022/09/30 07:46:15;;;;;;;;;;;;;;;13.46;59.59;100025.91;4934590;28;6821;-81
2022/09/30 07:48:49;;;;;;;;;;;;;;;13.55;59.62;100025.31;4918480;28;7441;-78
2022/09/30 07:51:26;;;;;;;;;;;;;;;13.63;59.64;100023.84;4940178;28;7037;-78
2022/09/30 07:53:56;;;;;;;;;;;;;;;13.71;60.70;100032.69;4936408;28;7187;-77
2022/09/30 07:56:23;;;;;;;;;;;;;;;13.82;59.65;100024.38;4920065;28;7121;-77
2022/09/30 07:58:59;;;;;;;;;;;;;;;13.92;59.72;100036.69;4940665;28;7302;-77
2022/09/30 08:01:27;;;;;;;;;;;;;;;14.03;60.25;100034.41;4938673;28;7004;-78
2022/09/30 08:03:57;;;;;;;;;;;;;;;14.14;59.87;100037.28;4925721;28;7042;-84
2022/09/30 08:06:25;;;;;;;;;;;;;;;14.25;60.06;100033.28;4916420;28;7086;-80
2022/09/30 08:08:55;;;;;;;;;;;;;;;14.36;59.96;100033.59;4922101;28;7162;-81
2022/09/30 08:11:21;;;;;;;;;;;;;;;14.45;59.30;100025.22;4933532;28;7003;-83
2022/09/30 08:13:52;;;;;;;;;;;;;;;14.56;59.08;100023.78;4934642;28;9015;-83
2022/09/30 08:16:19;;;;;;;;;;;;;;;14.65;58.83;100024.84;4936472;28;7469;-80
2022/09/30 08:18:45;;;;;;;;;;;;;;;14.75;59.65;100028.59;4936102;28;6981;-80
2022/09/30 08:21:11;;;;;;;;;;;;;;;14.85;59.07;100031.41;4937747;28;7219;-82
2022/09/30 08:23:36;;;;;;;;;;;;;;;14.93;59.15;100031.63;4936357;28;6970;-82
2022/09/30 08:26:09;;;;;;;;;;;;;;;15.03;58.75;100027.53;4927309;28;8421;-81
2022/09/30 08:28:36;;;;;;;;;;;;;;;15.13;59.26;100032.06;4926040;28;8702;-81
2022/09/30 08:31:18;;;;;;;;;;;;;;;15.25;58.74;100028.91;4936159;28;6836;-83
2022/09/30 08:33:46;;;;;;;;;;;;;;;15.35;58.25;100031.72;4931504;28;7014;-84
2022/09/30 08:36:21;;;;;;;;;;;;;;;15.45;58.32;100025.03;4934409;28;6868;-84
2022/09/30 08:38:47;;;;;;;;;;;;;;;15.55;58.29;100027.00;4935779;28;8490;-84
2022/09/30 08:41:22;;;;;;;;;;;;;;;15.65;57.95;100030.63;4932704;28;6936;-83
2022/09/30 08:44:30;;;;;;;;;;;;;;;15.72;57.89;100029.94;4931670;28;6808;-83
2022/09/30 08:47:35;;;;;;;;;;;;;;;15.85;57.76;100025.91;4935088;28;7024;-83
2022/09/30 08:50:09;;;;;;;;;;;;;;;15.96;57.75;100028.69;4930873;28;6983;-83
2022/09/30 08:52:42;;;;;;;;;;;;;;;16.10;57.81;100031.56;4913406;28;7257;-83
2022/09/30 08:55:20;;;;;;;;;;;;;;;16.20;57.53;100033.47;4918169;28;8475;-84
2022/09/30 08:57:46;;;;;;;;;;;;;;;16.29;57.43;100034.50;4920604;28;6808;-84
2022/09/30 09:00:16;;;;;;;;;;;;;;;16.38;57.07;100029.50;4930877;28;6953;-84
2022/09/30 09:02:59;;;;;;;;;;;;;;;16.48;56.72;100033.13;4917477;29;7716;-83
2022/09/30 09:05:53;;;;;;;;;;;;;;;16.54;56.63;100029.78;4929121;28;8436;-85
2022/09/30 09:08:38;;;;;;;;;;;;;;;16.62;56.18;100041.16;4930562;28;6864;-81
2022/09/30 09:11:42;;;;;;;;;;;;;;;16.71;56.65;100035.25;4929531;28;7304;-83
2022/09/30 09:15:02;;;;;;;;;;;;;;;16.78;55.98;100027.59;4932486;28;7267;-81
2022/09/30 09:17:46;;;;;;;;;;;;;;;16.86;55.62;100032.03;4924587;28;6989;-83
2022/09/30 09:20:20;;;;;;;;;;;;;;;16.92;55.41;100039.91;4927766;28;7038;-84
2022/09/30 09:22:49;;;;;;;;;;;;;;;16.99;55.44;100028.78;4921712;29;7493;-83
2022/09/30 09:25:26;;;;;;;;;;;;;;;17.05;54.84;100026.34;4935098;28;7292;-84
2022/09/30 09:28:39;;;;;;;;;;;;;;;17.14;55.32;100024.75;4932811;28;7098;-81
2022/09/30 09:31:15;;;;;;;;;;;;;;;17.23;54.67;100030.06;4905892;28;9522;-80
2022/09/30 09:33:42;;;;;;;;;;;;;;;17.31;54.78;100028.47;4919634;28;8484;-79
2022/09/30 09:36:32;;;;;;;;;;;;;;;17.39;54.36;100031.16;4938378;28;7063;-82
2022/09/30 09:39:33;;;;;;;;;;;;;;;17.44;54.64;100031.22;4937079;28;7472;-80
2022/09/30 09:42:40;;;;;;;;;;;;;;;17.48;54.52;100025.25;4938546;28;7172;-83
2022/09/30 09:46:02;;;;;;;;;;;;;;;17.59;54.28;100030.53;4939014;28;6997;-80
2022/09/30 09:48:29;;;;;;;;;;;;;;;17.67;54.37;100025.44;4941924;28;6981;-83
2022/09/30 09:51:35;;;;;;;;;;;;;;;17.77;54.29;100024.75;4938192;28;7037;-82
2022/09/30 09:54:08;;;;;;;;;;;;;;;17.86;53.51;100026.56;4903512;29;7341;-81
2022/09/30 09:56:36;;;;;;;;;;;;;;;17.97;53.76;100030.16;4921010;28;7267;-83
2022/09/30 09:59:12;;;;;;;;;;;;;;;18.09;53.32;100032.06;4938659;28;7315;-83
2022/09/30 10:01:51;;;;;;;;;;;;;;;18.21;53.63;100028.75;4935616;28;7008;-83
2022/09/30 10:04:23;;;;;;;;;;;;;;;18.34;53.64;100027.13;4935453;28;7070;-81
2022/09/30 10:07:11;;;;;;;;;;;;;;;18.51;53.48;100026.41;4936029;28;7253;-83
2022/09/30 10:09:40;;;;;;;;;;;;;;;18.95;53.23;100022.47;4934933;28;6840;-79
2022/09/30 10:12:05;;;;;;;;;;;;;;;19.88;52.20;100025.63;4938441;28;6820;-83
2022/09/30 10:14:54;;;;;;;;;;;;;;;21.08;50.79;100013.63;4937604;28;6871;-83
2022/09/30 10:17:33;;;;;;;;;;;;;;;22.54;48.71;100008.69;4908593;28;8547;-82
2022/09/30 10:20:26;;;;;;;;;;;;;;;23.64;46.60;100007.63;4925765;28;6986;-84
2022/09/30 10:23:19;;;;;;;;;;;;;;;24.87;45.41;99999.78;4937000;28;7234;-82
2022/09/30 10:26:16;;;;;;;;;;;;;;;26.01;42.74;99991.41;4938099;28;8476;-84
2022/09/30 10:28:52;;;;;;;;;;;;;;;26.80;41.12;99998.31;4917990;28;7008;-84
2022/09/30 10:31:30;;;;;;;;;;;;;;;27.44;40.43;100003.63;4935060;28;7277;-84
2022/09/30 10:34:19;;;;;;;;;;;;;;;28.08;39.56;100006.19;4935604;28;7035;-84
2022/09/30 10:36:47;;;;;;;;;;;;;;;28.62;38.81;100001.84;4934689;28;9305;-83
2022/09/30 10:40:07;;;;;;;;;;;;;;;29.22;37.40;99992.78;4937074;28;6788;-84
2022/09/30 10:42:39;;;;;;;;;;;;;;;29.94;36.10;99988.38;4935132;28;7303;-85
2022/09/30 10:45:29;;;;;;;;;;;;;;;30.18;34.93;99999.78;4926423;28;7256;-85
2022/09/30 10:47:57;;;;;;;;;;;;;;;29.85;34.20;100002.78;4931682;28;7030;-85
2022/09/30 10:50:26;;;;;;;;;;;;;;;29.23;34.00;100005.91;4931976;28;7004;-81
2022/09/30 10:53:17;;;;;;;;;;;;;;;29.11;34.90;100001.09;4933698;28;6804;-82
2022/09/30 10:55:45;;;;;;;;;;;;;;;29.49;34.45;100001.50;4922837;28;7006;-84
2022/09/30 10:58:29;;;;;;;;;;;;;;;29.70;32.69;99993.66;4924835;28;7058;-82
2022/09/30 11:01:27;;;;;;;;;;;;;;;29.68;32.63;100000.78;4937142;28;7664;-84
2022/09/30 11:04:29;;;;;;;;;;;;;;;29.72;31.51;99991.81;4917581;28;7228;-79
2022/09/30 11:07:30;;;;;;;;;;;;;;;29.83;31.49;99996.69;4932972;28;7146;-80
2022/09/30 11:10:24;;;;;;;;;;;;;;;30.16;31.87;100001.59;4936726;28;9496;-79
2022/09/30 11:13:14;;;;;;;;;;;;;;;30.47;30.21;99994.19;4937784;28;7182;-76
2022/09/30 11:16:28;;;;;;;;;;;;;;;30.43;30.03;100001.38;4932674;28;6816;-81
2022/09/30 11:19:06;;;;;;;;;;;;;;;30.35;30.31;99995.56;4914891;28;7073;-79
2022/09/30 11:21:54;;;;;;;;;;;;;;;30.50;30.10;99980.84;4932475;28;7187;-77
2022/09/30 11:24:40;;;;;;;;;;;;;;;30.66;29.31;99982.88;4927224;28;7014;-77
2022/09/30 11:27:42;;;;;;;;;;;;;;;30.74;29.01;99980.78;4933686;28;6966;-78
2022/09/30 11:30:46;;;;;;;;;;;;;;;30.82;29.22;99999.81;4933943;28;7258;-75
2022/09/30 11:33:59;;;;;;;;;;;;;;;30.54;30.12;99995.66;4920262;28;12343;-75
2022/09/30 11:36:43;;;;;;;;;;;;;;;30.70;30.03;99989.75;4928694;28;7100;-80
2022/09/30 11:39:53;;;;;;;;;;;;;;;30.89;29.17;99997.75;4931787;28;6876;-79
2022/09/30 11:42:51;;;;;;;;;;;;;;;30.91;29.30;99995.91;4931944;28;7070;-83
2022/09/30 11:45:42;;;;;;;;;;;;;;;30.46;29.10;99997.75;4915130;28;7101;-79
2022/09/30 11:48:39;;;;;;;;;;;;;;;30.01;29.02;99992.47;4933371;28;7005;-81
2022/09/30 11:51:28;;;;;;;;;;;;;;;28.95;30.65;99995.50;4928405;28;7332;-78
2022/09/30 11:54:14;;;;;;;;;;;;;;;27.90;30.53;99997.94;4933229;28;7467;-82
2022/09/30 11:57:35;;;;;;;;;;;;;;;27.48;30.95;99996.50;4929206;28;7013;-81
2022/09/30 12:00:18;;;;;;;;;;;;;;;27.70;30.75;99991.50;4918776;28;8589;-78
2022/09/30 12:02:55;;;;;;;;;;;;;;;27.63;30.30;99991.75;4915395;28;11842;-83
2022/09/30 12:05:36;;;;;;;;;;;;;;;27.15;30.63;99996.56;4929683;28;8654;-82
2022/09/30 12:08:23;;;;;;;;;;;;;;;26.61;31.08;99998.78;4934542;28;9316;-84
2022/09/30 12:11:11;;;;;;;;;;;;;;;26.27;31.80;100002.22;4934159;28;9822;-80
2022/09/30 12:13:55;;;;;;;;;;;;;;;26.12;31.62;100003.41;4916998;28;8110;-81
2022/09/30 12:16:28;;;;;;;;;;;;;;;25.74;32.11;99998.13;4927343;28;7273;-86
2022/09/30 12:19:23;;;;;;;;;;;;;;;25.28;32.51;99992.06;4925789;28;7002;-82
2022/09/30 12:22:21;;;;;;;;;;;;;;;24.71;33.58;99993.91;4939179;28;6990;-81
2022/09/30 12:24:47;;;;;;;;;;;;;;;24.34;34.17;99998.00;4935894;28;7011;-87
2022/09/30 12:27:22;;;;;;;;;;;;;;;24.05;34.49;100004.53;4938576;28;7171;-85
2022/09/30 12:30:16;;;;;;;;;;;;;;;23.77;34.74;99999.66;4937244;28;7378;-83
2022/09/30 12:32:58;;;;;;;;;;;;;;;23.52;34.67;99999.94;4926153;28;13160;-86
2022/09/30 12:35:36;;;;;;;;;;;;;;;23.30;35.48;99992.34;4919622;28;8760;-81
2022/09/30 12:38:58;;;;;;;;;;;;;;;23.04;35.61;99988.22;4918474;28;7293;-87
2022/09/30 12:42:34;;;;;;;;;;;;;;;22.84;35.89;99980.56;4918395;28;8846;-85
2022/09/30 12:45:50;;;;;;;;;;;;;;;22.67;36.22;99978.13;4908321;28;8440;-83
2022/09/30 12:48:23;;;;;;;;;;;;;;;22.54;36.46;99982.59;4920247;28;7345;-84
2022/09/30 12:50:56;;;;;;;;;;;;;;;22.40;36.25;99982.66;4932630;28;7253;-81
2022/09/30 12:53:40;;;;;;;;;;;;;;;22.27;36.51;99977.53;4941942;28;6963;-79
2022/09/30 12:56:12;;;;;;;;;;;;;;;22.16;37.03;99976.75;4939330;28;6804;-82
2022/09/30 12:58:51;;;;;;;;;;;;;;;22.04;36.75;99977.69;4944847;28;6820;-80
2022/09/30 13:01:25;;;;;;;;;;;;;;;21.98;37.00;99970.75;4926002;28;6796;-78
2022/09/30 13:03:59;;;;;;;;;;;;;;;21.94;37.57;99968.19;4940449;28;7231;-78
2022/09/30 13:06:43;;;;;;;;;;;;;;;21.92;36.66;99963.84;4934294;28;7263;-78
2022/09/30 13:09:15;;;;;;;;;;;;;;;21.91;37.10;99962.13;4932569;28;6808;-81
2022/09/30 13:11:47;;;;;;;;;;;;;;;21.94;37.09;99962.97;4931409;28;8187;-78
2022/09/30 13:14:42;;;;;;;;;;;;;;;21.92;36.85;99953.41;4918905;29;6808;-79
2022/09/30 13:17:07;;;;;;;;;;;;;;;21.89;36.87;99953.44;4924691;29;8166;-81
2022/09/30 13:19:39;;;;;;;;;;;;;;;21.90;37.44;99949.06;4919258;28;7206;-82
2022/09/30 13:22:16;;;;;;;;;;;;;;;21.85;37.14;99943.03;4934905;28;6950;-80
2022/09/30 13:25:14;;;;;;;;;;;;;;;21.78;36.94;99947.41;4932785;28;6784;-81
2022/09/30 13:28:25;;;;;;;;;;;;;;;21.74;37.33;99941.34;4931112;28;8404;-81
2022/09/30 13:31:17;;;;;;;;;;;;;;;21.73;37.48;99943.97;4933015;28;7087;-79
2022/09/30 13:34:11;;;;;;;;;;;;;;;21.70;37.52;99943.97;4921830;28;7003;-81
2022/09/30 13:36:55;;;;;;;;;;;;;;;21.68;37.36;99936.16;4920716;29;6971;-82
2022/09/30 13:39:44;;;;;;;;;;;;;;;21.66;37.56;99940.50;4932646;28;6797;-82
2022/09/30 13:42:28;;;;;;;;;;;;;;;21.66;37.61;99940.50;4935304;28;6880;-82
2022/09/30 13:45:17;;;;;;;;;;;;;;;21.66;37.98;99932.66;4926543;28;7254;-82
2022/09/30 13:48:16;;;;;;;;;;;;;;;21.63;37.75;99935.28;4930816;28;7459;-81
2022/09/30 13:50:51;;;;;;;;;;;;;;;21.63;37.87;99930.06;4928477;28;7249;-81